Time;durP1;ratioP1;P1;durP2;ratioP2;P2;SDS_P1;SDS_P2;PMS_P1;PMS_P2;Temp;Humidity;BMP_temperature;BMP_pressure;BME280_temperature;BME280_humidity;BME280_pressure;Samples;Min_cycle;Max_cycle;Signal;HPM_P1;HPM_P2
2022/09/17 00:02:14;;;;;;;11.25;2.63;;;;;;;9.97;100.00;101204.88;5043302;28;20116;-84
2022/09/17 00:04:39;;;;;;;15.85;3.38;;;;;;;10.01;100.00;101210.03;5047327;28;20033;-84
2022/09/17 00:07:04;;;;;;;15.05;3.13;;;;;;;10.03;100.00;101213.47;5040964;28;20037;-84
2022/09/17 00:09:30;;;;;;;14.40;2.95;;;;;;;10.04;100.00;101212.50;5042178;28;20032;-84
2022/09/17 00:11:55;;;;;;;13.35;2.75;;;;;;;10.04;100.00;101221.41;5045068;28;20071;-84
2022/09/17 00:14:21;;;;;;;11.02;2.45;;;;;;;10.04;100.00;101221.41;5042605;28;20038;-84
2022/09/17 00:16:48;;;;;;;13.93;3.13;;;;;;;10.05;100.00;101230.34;5050586;28;20040;-84
2022/09/17 00:19:21;;;;;;;15.65;3.13;;;;;;;10.04;100.00;101225.94;5049900;28;20090;-84
2022/09/17 00:21:47;;;;;;;15.90;3.72;;;;;;;10.02;100.00;101228.72;5050182;28;20037;-84
2022/09/17 00:24:14;;;;;;;16.58;3.15;;;;;;;10.02;100.00;101223.34;5046197;28;20325;-84
2022/09/17 00:26:40;;;;;;;18.48;3.47;;;;;;;10.03;100.00;101218.84;5049469;28;20036;-84
2022/09/17 00:29:06;;;;;;;14.00;2.50;;;;;;;10.04;100.00;101216.03;5046315;28;20024;-84
2022/09/17 00:31:31;;;;;;;14.05;2.75;;;;;;;10.04;100.00;101218.72;5038652;28;20361;-84
2022/09/17 00:33:58;;;;;;;14.55;2.85;;;;;;;10.05;100.00;101224.97;5048385;28;20065;-84
2022/09/17 00:36:24;;;;;;;17.48;3.40;;;;;;;10.04;100.00;101223.25;5033516;28;20045;-84
2022/09/17 00:38:51;;;;;;;11.10;2.67;;;;;;;10.06;100.00;101234.75;5050055;28;20040;-84
2022/09/17 00:41:17;;;;;;;16.70;2.70;;;;;;;10.07;100.00;101237.38;5047501;28;20052;-84
2022/09/17 00:43:55;;;;;;;17.25;3.33;;;;;;;10.10;100.00;101239.84;5049100;28;20412;-84
2022/09/17 00:46:32;;;;;;;13.85;3.08;;;;;;;10.14;100.00;101244.03;5046639;28;20052;-84
2022/09/17 00:49:01;;;;;;;13.55;2.95;;;;;;;10.14;100.00;101235.97;5041121;28;20037;-84
2022/09/17 00:51:33;;;;;;;9.77;2.13;;;;;;;10.19;100.00;101218.69;5038225;28;20024;-84
2022/09/17 00:54:00;;;;;;;7.72;2.30;;;;;;;10.19;100.00;101229.44;5049862;28;20021;-83
2022/09/17 00:56:30;;;;;;;8.70;2.50;;;;;;;10.18;100.00;101227.75;5051119;28;20106;-84
2022/09/17 00:58:57;;;;;;;9.98;2.92;;;;;;;10.17;100.00;101237.59;5048668;28;20473;-84
2022/09/17 01:01:22;;;;;;;17.63;2.88;;;;;;;10.19;100.00;101245.56;5039442;28;20032;-84
2022/09/17 01:03:48;;;;;;;15.15;2.65;;;;;;;10.19;100.00;101233.00;5048906;28;20453;-84
2022/09/17 01:06:33;;;;;;;10.73;2.80;;;;;;;10.22;100.00;101240.84;5048984;28;20028;-84
2022/09/17 01:09:17;;;;;;;9.10;2.25;;;;;;;10.21;100.00;101243.66;5048856;28;20086;-84
2022/09/17 01:11:54;;;;;;;14.40;2.90;;;;;;;10.19;100.00;101237.50;5037900;28;20083;-83
2022/09/17 01:14:35;;;;;;;13.00;2.72;;;;;;;10.19;100.00;101248.25;5050933;28;20029;-83
2022/09/17 01:17:03;;;;;;;14.13;2.88;;;;;;;10.19;100.00;101237.50;5049106;28;20423;-83
2022/09/17 01:20:05;;;;;;;13.98;3.08;;;;;;;10.20;100.00;101241.91;5048844;28;20032;-84
2022/09/17 01:22:59;;;;;;;14.80;2.92;;;;;;;10.21;100.00;101240.97;5048378;28;20067;-84
2022/09/17 01:25:44;;;;;;;16.55;2.83;;;;;;;10.21;100.00;101246.34;5042746;28;20021;-84
2022/09/17 01:28:28;;;;;;;11.52;2.30;;;;;;;10.25;100.00;101253.22;5049115;28;20036;-83
2022/09/17 01:31:08;;;;;;;14.57;2.85;;;;;;;10.30;100.00;101245.72;5048305;28;20098;-83
2022/09/17 01:33:36;;;;;;;17.52;2.97;;;;;;;10.33;100.00;101258.94;5047904;28;20057;-83
2022/09/17 01:36:19;;;;;;;9.80;2.20;;;;;;;10.37;100.00;101249.75;5047424;28;20032;-84
2022/09/17 01:38:57;;;;;;;11.30;2.60;;;;;;;10.39;100.00;101255.88;5041942;28;20033;-84
2022/09/17 01:41:36;;;;;;;19.23;3.10;;;;;;;10.41;100.00;101262.03;5048584;28;20097;-84
2022/09/17 01:44:23;;;;;;;8.52;2.40;;;;;;;10.38;100.00;101256.00;5043565;28;20021;-84
2022/09/17 01:47:02;;;;;;;15.80;2.70;;;;;;;10.35;100.00;101259.72;5042091;28;20036;-84
2022/09/17 01:49:30;;;;;;;14.30;3.38;;;;;;;10.33;100.00;101264.31;5038099;28;20496;-84
2022/09/17 01:51:56;;;;;;;14.60;2.92;;;;;;;10.31;100.00;101261.75;5043694;28;20029;-84
2022/09/17 01:54:29;;;;;;;15.75;3.20;;;;;;;10.27;100.00;101268.28;5050711;28;20035;-84
2022/09/17 01:57:08;;;;;;;14.50;2.72;;;;;;;10.26;100.00;101266.56;5044693;28;20115;-84
2022/09/17 01:59:43;;;;;;;16.10;2.88;;;;;;;10.28;100.00;101263.78;5052064;28;20037;-84
2022/09/17 02:02:44;;;;;;;13.05;2.38;;;;;;;10.27;100.00;101267.41;5052731;28;20049;-84
2022/09/17 02:05:43;;;;;;;17.05;2.70;;;;;;;10.25;100.00;101262.16;5052811;28;20124;-83
2022/09/17 02:08:22;;;;;;;11.68;2.65;;;;;;;10.23;100.00;101263.19;5053328;28;20040;-84
2022/09/17 02:10:53;;;;;;;10.77;2.67;;;;;;;10.19;100.00;101264.34;5051748;28;20527;-84
2022/09/17 02:13:30;;;;;;;12.13;2.70;;;;;;;10.18;100.00;101257.28;5047525;28;20035;-84
2022/09/17 02:16:25;;;;;;;15.75;2.78;;;;;;;10.18;100.00;101254.59;5051505;28;20021;-84
2022/09/17 02:19:12;;;;;;;11.07;2.50;;;;;;;10.19;100.00;101259.88;5050774;28;20025;-83
2022/09/17 02:21:46;;;;;;;10.02;2.97;;;;;;;10.21;100.00;101257.94;5051432;28;20029;-83
2022/09/17 02:24:30;;;;;;;14.00;2.65;;;;;;;10.20;100.00;101255.34;5056253;28;20452;-83
2022/09/17 02:27:01;;;;;;;13.02;2.70;;;;;;;10.21;100.00;101266.00;5050320;28;20025;-83
2022/09/17 02:29:47;;;;;;;13.75;3.00;;;;;;;10.20;100.00;101266.09;5050165;28;20116;-83
2022/09/17 02:32:13;;;;;;;17.42;2.50;;;;;;;10.14;100.00;101265.50;5048040;28;20135;-83
2022/09/17 02:34:39;;;;;;;12.77;2.60;;;;;;;10.13;100.00;101270.97;5048492;28;20279;-83
2022/09/17 02:37:05;;;;;;;18.63;3.47;;;;;;;10.10;100.00;101269.38;5049927;28;20040;-83
2022/09/17 02:39:30;;;;;;;12.98;2.20;;;;;;;10.08;100.00;101276.66;5047633;28;20064;-83
2022/09/17 02:42:21;;;;;;;13.85;3.00;;;;;;;10.08;100.00;101275.81;5048627;28;20178;-83
2022/09/17 02:45:13;;;;;;;10.45;2.30;;;;;;;10.06;100.00;101278.59;5047545;28;20056;-83
2022/09/17 02:48:00;;;;;;;13.98;2.70;;;;;;;10.06;100.00;101280.41;5047784;28;20362;-83
2022/09/17 02:50:44;;;;;;;14.73;3.30;;;;;;;10.04;100.00;101279.66;5044939;28;20038;-83
2022/09/17 02:53:36;;;;;;;12.38;2.55;;;;;;;10.02;100.00;101278.91;5045854;28;20037;-83
2022/09/17 02:56:29;;;;;;;15.23;3.25;;;;;;;10.00;100.00;101284.38;5049229;28;20041;-83
2022/09/17 02:59:12;;;;;;;19.25;3.10;;;;;;;9.96;100.00;101282.84;5050054;28;20029;-83
2022/09/17 03:01:51;;;;;;;9.55;2.47;;;;;;;9.94;100.00;101285.63;5042976;28;20127;-83
2022/09/17 03:04:19;;;;;;;14.05;2.15;;;;;;;9.90;100.00;101283.22;5043841;28;20032;-84
2022/09/17 03:06:46;;;;;;;13.50;2.97;;;;;;;9.88;100.00;101274.38;5042011;28;20035;-84
2022/09/17 03:09:14;;;;;;;11.05;1.85;;;;;;;9.80;100.00;101278.41;5049635;28;20063;-84
2022/09/17 03:11:40;;;;;;;8.35;2.42;;;;;;;9.80;100.00;101275.75;5005517;28;1063133;-83
2022/09/17 03:14:05;;;;;;;10.27;2.20;;;;;;;9.77;100.00;101272.41;5047887;28;20107;-83
2022/09/17 03:16:31;;;;;;;15.50;2.95;;;;;;;9.75;100.00;101269.81;5052393;28;20059;-83
2022/09/17 03:18:56;;;;;;;17.60;2.78;;;;;;;9.75;100.00;101272.50;5043526;28;20032;-83
2022/09/17 03:21:21;;;;;;;16.55;2.47;;;;;;;9.74;100.00;101276.13;5038806;28;20082;-83
2022/09/17 03:23:47;;;;;;;11.55;2.47;;;;;;;9.77;100.00;101273.25;5051535;28;20366;-83
2022/09/17 03:26:12;;;;;;;12.93;3.13;;;;;;;9.79;100.00;101275.84;5050279;28;20033;-83
2022/09/17 03:28:37;;;;;;;14.68;2.47;;;;;;;9.81;100.00;101279.31;5050667;28;20350;-83
2022/09/17 03:31:04;;;;;;;10.98;2.50;;;;;;;9.82;100.00;101270.28;5049773;28;20055;-83
2022/09/17 03:33:30;;;;;;;17.05;2.20;;;;;;;9.83;100.00;101265.78;5046727;28;20492;-83
2022/09/17 03:35:55;;;;;;;13.38;2.83;;;;;;;9.88;100.00;101274.38;5048947;28;20021;-83
2022/09/17 03:38:20;;;;;;;14.07;2.35;;;;;;;9.89;100.00;101271.59;5051587;28;20047;-83
2022/09/17 03:41:03;;;;;;;20.27;3.20;;;;;;;9.89;100.00;101266.22;5049295;28;20028;-83
2022/09/17 03:43:29;;;;;;;10.07;2.00;;;;;;;9.86;100.00;101271.81;5049743;28;20057;-83
2022/09/17 03:45:54;;;;;;;8.55;1.95;;;;;;;9.85;100.00;101263.84;5049649;28;20044;-83
2022/09/17 03:48:20;;;;;;;11.65;2.45;;;;;;;9.83;100.00;101272.00;5043613;28;20035;-83
2022/09/17 03:50:46;;;;;;;12.25;2.25;;;;;;;9.80;100.00;101278.41;5050127;28;20478;-83
2022/09/17 03:53:11;;;;;;;9.50;2.15;;;;;;;9.76;100.00;101276.88;5050356;28;20025;-83
2022/09/17 03:55:38;;;;;;;13.50;2.17;;;;;;;9.71;100.00;101272.78;5049336;28;20029;-83
2022/09/17 03:58:03;;;;;;;10.30;1.92;;;;;;;9.66;100.00;101281.09;5048289;28;20033;-83
2022/09/17 04:00:29;;;;;;;8.80;2.30;;;;;;;9.61;100.00;101283.22;5047851;28;20059;-83
2022/09/17 04:02:54;;;;;;;18.00;2.65;;;;;;;9.56;100.00;101278.16;5048679;28;20388;-83
2022/09/17 04:05:20;;;;;;;9.70;1.98;;;;;;;9.53;100.00;101280.16;5050569;28;20021;-83
2022/09/17 04:07:45;;;;;;;10.70;2.10;;;;;;;9.49;100.00;101289.34;5049945;28;20040;-83
2022/09/17 04:10:10;;;;;;;12.77;2.35;;;;;;;9.44;100.00;101282.47;5051564;28;20100;-83
2022/09/17 04:12:36;;;;;;;10.98;2.03;;;;;;;9.43;100.00;101283.41;5046403;28;20496;-83
2022/09/17 04:15:02;;;;;;;14.55;2.35;;;;;;;9.43;100.00;101287.94;5050101;28;20025;-83
2022/09/17 04:17:27;;;;;;;13.27;2.15;;;;;;;9.40;100.00;101286.28;5049177;28;20067;-83
2022/09/17 04:19:52;;;;;;;12.30;2.53;;;;;;;9.37;100.00;101288.28;5048872;28;20032;-83
2022/09/17 04:22:18;;;;;;;12.07;2.30;;;;;;;9.35;100.00;101293.75;5045687;28;20031;-83
2022/09/17 04:24:43;;;;;;;10.88;2.88;;;;;;;9.35;100.00;101299.09;5050138;28;20025;-83
2022/09/17 04:27:08;;;;;;;10.77;2.30;;;;;;;9.32;100.00;101293.94;5043918;28;20091;-83
2022/09/17 04:29:34;;;;;;;11.90;2.25;;;;;;;9.31;100.00;101291.34;5050168;28;20416;-83
2022/09/17 04:31:59;;;;;;;9.90;2.03;;;;;;;9.28;100.00;101287.03;5047094;28;20028;-83
2022/09/17 04:34:24;;;;;;;10.13;2.45;;;;;;;9.25;100.00;101293.47;5048665;28;20040;-83
2022/09/17 04:36:50;;;;;;;10.32;2.50;;;;;;;9.29;100.00;101294.13;5049290;28;20040;-83
2022/09/17 04:39:16;;;;;;;10.82;2.30;;;;;;;9.31;100.00;101296.72;5049294;28;20037;-83
2022/09/17 04:41:41;;;;;;;18.52;2.92;;;;;;;9.32;100.00;101303.81;5047780;28;20029;-83
2022/09/17 04:44:07;;;;;;;12.50;2.45;;;;;;;9.34;100.00;101312.59;5051161;28;20158;-83
2022/09/17 04:46:32;;;;;;;9.43;2.17;;;;;;;9.37;100.00;101318.66;5049160;28;20028;-83
2022/09/17 04:48:57;;;;;;;9.90;2.30;;;;;;;9.41;100.00;101313.97;5049257;28;20116;-83
2022/09/17 04:51:23;;;;;;;16.95;2.40;;;;;;;9.43;100.00;101306.72;5046181;28;20104;-84
2022/09/17 04:53:48;;;;;;;13.52;2.25;;;;;;;9.47;100.00;101296.63;5035670;28;20034;-84
2022/09/17 04:56:14;;;;;;;9.38;2.30;;;;;;;9.47;100.00;101302.84;5039170;28;20029;-84
2022/09/17 04:58:39;;;;;;;9.80;2.40;;;;;;;9.44;100.00;101282.47;5037083;28;20427;-84
2022/09/17 05:01:04;;;;;;;15.85;2.38;;;;;;;9.45;100.00;101288.69;5038444;28;20036;-84
2022/09/17 05:03:30;;;;;;;13.20;2.55;;;;;;;9.45;100.00;101289.53;5041155;28;20033;-84
2022/09/17 05:05:55;;;;;;;11.43;2.50;;;;;;;9.44;100.00;101293.19;5044903;28;20032;-84
2022/09/17 05:08:22;;;;;;;12.55;2.80;;;;;;;9.43;100.00;101285.25;5049018;28;20111;-85
2022/09/17 05:10:50;;;;;;;14.10;2.28;;;;;;;9.40;100.00;101299.69;5049374;28;20087;-84
2022/09/17 05:13:15;;;;;;;14.70;3.05;;;;;;;9.38;100.00;101308.78;5048840;28;20036;-84
2022/09/17 05:15:41;;;;;;;12.77;2.42;;;;;;;9.34;100.00;101309.94;5048547;28;20021;-84
2022/09/17 05:18:06;;;;;;;9.27;2.20;;;;;;;9.30;100.00;101303.03;5048966;28;20029;-84
2022/09/17 05:20:31;;;;;;;14.77;2.60;;;;;;;9.27;100.00;101309.47;5042188;28;20025;-84
2022/09/17 05:22:57;;;;;;;15.07;2.47;;;;;;;9.23;100.00;101311.44;5042662;28;20035;-84
2022/09/17 05:25:24;;;;;;;10.10;2.50;;;;;;;9.19;100.00;101314.41;5031385;28;20040;-84
2022/09/17 05:27:55;;;;;;;9.25;2.45;;;;;;;9.16;100.00;101318.13;5047306;28;20437;-84
2022/09/17 05:30:20;;;;;;;12.13;2.35;;;;;;;9.13;100.00;101322.81;5048005;28;20514;-84
2022/09/17 05:32:46;;;;;;;14.70;2.78;;;;;;;9.10;100.00;101323.88;5047837;28;20029;-84
2022/09/17 05:35:11;;;;;;;10.48;1.92;;;;;;;9.09;100.00;101325.69;5047682;28;20557;-84
2022/09/17 05:37:37;;;;;;;12.38;2.30;;;;;;;9.08;100.00;101326.63;5035738;28;20115;-84
2022/09/17 05:40:05;;;;;;;8.63;2.08;;;;;;;9.07;100.00;101332.94;5049722;28;20043;-84
2022/09/17 05:42:30;;;;;;;20.20;2.65;;;;;;;9.09;100.00;101327.50;5043844;28;20070;-84
2022/09/17 05:44:56;;;;;;;12.88;2.42;;;;;;;9.07;100.00;101319.53;5044032;28;20029;-84
2022/09/17 05:47:21;;;;;;;10.25;2.20;;;;;;;9.10;100.00;101324.72;5035452;28;20143;-84
2022/09/17 05:49:46;;;;;;;13.07;2.92;;;;;;;9.10;100.00;101324.72;5048523;28;20032;-83
2022/09/17 05:52:11;;;;;;;13.20;2.78;;;;;;;9.11;100.00;101330.97;5047177;28;20124;-83
2022/09/17 05:54:37;;;;;;;13.52;2.50;;;;;;;9.12;100.00;101329.13;5047415;28;20029;-83
2022/09/17 05:57:02;;;;;;;12.73;2.47;;;;;;;9.14;100.00;101338.81;5036294;28;20088;-83
2022/09/17 05:59:27;;;;;;;15.98;2.83;;;;;;;9.15;100.00;101353.09;5047376;28;20424;-83
2022/09/17 06:01:53;;;;;;;15.50;2.88;;;;;;;9.19;100.00;101365.38;5047368;28;20132;-83
2022/09/17 06:04:18;;;;;;;12.27;2.92;;;;;;;9.25;100.00;101365.00;5048691;28;20464;-83
2022/09/17 06:06:43;;;;;;;14.25;2.78;;;;;;;9.28;100.00;101372.84;5041617;28;20033;-84
2022/09/17 06:09:09;;;;;;;9.60;2.25;;;;;;;9.32;100.00;101369.03;5030412;28;20017;-84
2022/09/17 06:11:37;;;;;;;12.65;2.70;;;;;;;9.38;100.00;101360.63;5047012;28;20052;-83
2022/09/17 06:14:03;;;;;;;16.40;2.65;;;;;;;9.46;100.00;101365.53;5036951;28;20044;-84
2022/09/17 06:16:29;;;;;;;15.95;2.78;;;;;;;9.50;100.00;101366.19;5046930;28;20393;-84
2022/09/17 06:18:55;;;;;;;11.48;2.13;;;;;;;9.54;100.00;101368.59;5047505;28;20037;-84
2022/09/17 06:21:21;;;;;;;17.52;3.05;;;;;;;9.60;100.00;101367.38;5042655;28;20547;-83
2022/09/17 06:23:47;;;;;;;13.70;2.97;;;;;;;9.60;100.00;101367.38;5045698;28;20075;-83
2022/09/17 06:26:13;;;;;;;10.23;2.53;;;;;;;9.57;100.00;101363.03;5048721;28;20029;-83
2022/09/17 06:28:38;;;;;;;14.05;2.33;;;;;;;9.56;100.00;101360.47;5039891;28;20063;-83
2022/09/17 06:31:06;;;;;;;11.95;2.58;;;;;;;9.52;100.00;101362.47;5035853;28;20052;-83
2022/09/17 06:33:31;;;;;;;12.25;3.00;;;;;;;9.51;100.00;101367.94;5048355;28;20024;-83
2022/09/17 06:36:03;;;;;;;12.23;2.63;;;;;;;9.45;100.00;101367.34;5050712;28;20195;-83
2022/09/17 06:38:31;;;;;;;9.80;2.58;;;;;;;9.46;100.00;101362.84;5050972;28;20025;-83
2022/09/17 06:40:57;;;;;;;13.68;3.10;;;;;;;9.47;100.00;101367.25;5045652;28;20360;-83
2022/09/17 06:43:22;;;;;;;10.85;2.25;;;;;;;9.49;100.00;101369.84;5046692;28;20040;-83
2022/09/17 06:45:52;;;;;;;14.68;2.88;;;;;;;9.51;100.00;101359.88;5042660;28;20017;-83
2022/09/17 06:48:17;;;;;;;;;;;;;;;9.60;100.00;101357.53;5050888;28;20035;-83
2022/09/17 06:50:43;;;;;;;11.65;2.42;;;;;;;9.53;100.00;101361.53;5044615;28;19916;-83
2022/09/17 06:53:09;;;;;;;10.82;2.20;;;;;;;9.54;100.00;101367.75;5053187;28;20056;-83
2022/09/17 06:55:34;;;;;;;8.02;2.10;;;;;;;9.57;100.00;101359.50;5039519;28;20017;-83
2022/09/17 06:58:00;;;;;;;10.77;2.55;;;;;;;9.59;100.00;101352.22;5043331;28;20026;-83
2022/09/17 07:00:26;;;;;;;10.05;2.50;;;;;;;9.59;100.00;101345.06;5049113;28;20028;-83
2022/09/17 07:02:58;;;;;;;17.52;2.67;;;;;;;9.61;100.00;101353.84;5046337;28;20032;-83
2022/09/17 07:05:25;;;;;;;9.57;2.00;;;;;;;9.66;100.00;101350.88;5042612;28;20033;-83
2022/09/17 07:07:51;;;;;;;12.20;2.58;;;;;;;9.75;100.00;101358.41;5046260;28;20059;-83
2022/09/17 07:10:16;;;;;;;17.65;3.10;;;;;;;9.83;100.00;101362.44;5048806;28;20028;-83
2022/09/17 07:12:42;;;;;;;13.18;2.65;;;;;;;9.90;100.00;101370.00;5046465;28;20072;-83
2022/09/17 07:15:11;;;;;;;8.60;2.60;;;;;;;9.97;100.00;101368.66;5061152;28;20017;-83
2022/09/17 07:17:39;;;;;;;19.60;5.30;;;;;;;10.03;100.00;101363.84;5046961;28;20488;-83
2022/09/17 07:20:06;;;;;;;21.15;7.30;;;;;;;10.10;100.00;101366.06;5044959;28;20048;-83
2022/09/17 07:22:31;;;;;;;18.58;3.30;;;;;;;10.17;100.00;101371.06;5045095;28;20086;-83
2022/09/17 07:24:57;;;;;;;15.68;3.38;;;;;;;10.26;100.00;101375.81;5047744;28;20445;-83
2022/09/17 07:27:22;;;;;;;13.88;2.80;;;;;;;10.31;100.00;101379.09;5049107;28;20070;-84
2022/09/17 07:29:47;;;;;;;14.27;3.10;;;;;;;10.36;100.00;101382.38;5050308;28;20037;-83
2022/09/17 07:32:13;;;;;;;13.50;2.40;;;;;;;10.42;100.00;101373.06;5043662;28;20025;-83
2022/09/17 07:34:38;;;;;;;12.35;2.42;;;;;;;10.48;100.00;101370.84;5054672;28;20045;-83
2022/09/17 07:37:04;;;;;;;13.00;2.28;;;;;;;10.55;100.00;101370.44;5051380;28;20028;-83
2022/09/17 07:39:29;;;;;;;9.32;1.92;;;;;;;10.62;99.60;101375.31;5049404;28;20033;-83
2022/09/17 07:41:54;;;;;;;10.65;2.00;;;;;;;10.71;100.00;101367.63;5042093;28;20061;-83
2022/09/17 07:44:21;;;;;;;12.32;2.20;;;;;;;10.78;96.88;101372.50;5050149;28;20120;-83
2022/09/17 07:46:46;;;;;;;11.93;1.77;;;;;;;10.83;97.72;101374.88;5049532;28;20039;-83
2022/09/17 07:49:11;;;;;;;7.00;1.80;;;;;;;10.88;97.38;101374.56;5046306;28;20472;-83
2022/09/17 07:51:36;;;;;;;3.28;1.17;;;;;;;10.92;95.25;101368.03;5049539;28;20116;-84
2022/09/17 07:54:02;;;;;;;13.38;2.65;;;;;;;10.99;98.28;101375.56;5050907;28;20040;-84
2022/09/17 07:56:28;;;;;;;6.28;1.52;;;;;;;11.02;94.90;101366.44;5052026;28;20078;-84
2022/09/17 07:58:54;;;;;;;4.00;1.10;;;;;;;11.06;95.38;101364.44;5050766;28;20028;-83
2022/09/17 08:01:22;;;;;;;10.75;1.83;;;;;;;11.10;95.78;101372.19;5052025;28;20042;-83
2022/09/17 08:03:50;;;;;;;9.52;2.33;;;;;;;11.16;94.05;101370.91;5037081;28;20561;-84
2022/09/17 08:06:18;;;;;;;9.18;1.80;;;;;;;11.22;96.42;101366.94;5032232;28;20025;-84
2022/09/17 08:08:44;;;;;;;12.60;2.45;;;;;;;11.28;96.10;101366.53;5030733;28;20033;-84
2022/09/17 08:11:12;;;;;;;9.73;2.33;;;;;;;11.36;96.86;101372.22;5031642;28;20133;-84
2022/09/17 08:13:38;;;;;;;7.78;1.40;;;;;;;11.40;95.43;101368.38;5036953;28;20029;-84
2022/09/17 08:16:05;;;;;;;10.98;2.35;;;;;;;11.42;94.25;101366.44;5050331;28;20025;-84
2022/09/17 08:18:31;;;;;;;10.32;1.80;;;;;;;11.45;94.51;101373.44;5050695;28;20163;-84
2022/09/17 08:20:58;;;;;;;11.73;2.33;;;;;;;11.47;93.83;101391.19;5050371;28;20498;-84
2022/09/17 08:23:25;;;;;;;8.45;1.52;;;;;;;11.50;92.92;101385.59;5051818;28;20028;-84
2022/09/17 08:26:15;;;;;;;9.07;1.67;;;;;;;11.58;93.47;101376.13;5051986;28;20029;-84
2022/09/17 08:28:43;;;;;;;10.88;2.20;;;;;;;11.62;92.03;101372.28;5042719;28;20071;-84
2022/09/17 08:31:09;;;;;;;12.57;2.72;;;;;;;11.68;94.87;101370.03;5048347;28;20028;-84
2022/09/17 08:33:36;;;;;;;13.60;2.10;;;;;;;11.72;91.73;101370.66;5048218;28;20028;-85
2022/09/17 08:36:03;;;;;;;10.98;1.92;;;;;;;11.77;92.68;101368.53;5051450;28;20452;-85
2022/09/17 08:38:36;;;;;;;7.32;1.50;;;;;;;11.80;91.16;101365.63;5051295;28;20050;-85
2022/09/17 08:41:13;;;;;;;5.60;1.50;;;;;;;11.84;91.26;101377.88;5050220;28;20044;-84
2022/09/17 08:44:01;;;;;;;10.00;2.42;;;;;;;11.87;92.08;101377.69;5048249;28;20893;-85
2022/09/17 08:46:31;;;;;;;10.73;2.15;;;;;;;11.89;91.47;101378.41;5047757;28;20052;-85
2022/09/17 08:49:10;;;;;;;10.05;1.92;;;;;;;11.97;91.18;101382.44;5048177;28;20224;-85
2022/09/17 08:51:45;;;;;;;12.07;1.90;;;;;;;12.02;90.40;101381.16;5039779;28;20151;-78
2022/09/17 08:54:26;;;;;;;7.00;1.15;;;;;;;12.06;89.60;101388.03;5047318;28;20462;-78
2022/09/17 08:57:15;;;;;;;10.00;2.47;;;;;;;12.12;89.68;101392.09;5049838;28;20025;-85
2022/09/17 08:59:57;;;;;;;9.18;1.80;;;;;;;12.17;88.31;101386.41;5021741;28;20072;-84
2022/09/17 09:02:41;;;;;;;8.57;1.83;;;;;;;12.26;88.49;101395.69;5023443;28;20053;-84
2022/09/17 09:05:18;;;;;;;9.77;1.92;;;;;;;12.36;86.69;101391.34;5028772;28;20038;-84
2022/09/17 09:07:49;;;;;;;8.90;1.52;;;;;;;12.44;88.74;101391.63;5017892;28;20029;-84
2022/09/17 09:10:30;;;;;;;15.35;2.05;;;;;;;12.50;88.17;101390.34;5018601;28;20132;-82
2022/09/17 09:12:58;;;;;;;11.55;2.08;;;;;;;12.53;87.88;101400.88;5018027;28;20037;-84
2022/09/17 09:15:42;;;;;;;11.82;2.13;;;;;;;12.57;90.55;101402.41;5004086;28;20528;-84
2022/09/17 09:18:17;;;;;;;10.13;2.17;;;;;;;12.53;89.50;101408.97;5009592;28;20116;-83
2022/09/17 09:20:53;;;;;;;10.45;2.00;;;;;;;12.50;87.74;101401.13;5004734;28;20034;-85
2022/09/17 09:23:23;;;;;;;12.77;2.00;;;;;;;12.46;86.58;101403.19;5026420;28;20040;-84
2022/09/17 09:26:07;;;;;;;;;;;;;;;12.53;89.96;101392.81;5028341;28;20128;-84
2022/09/17 09:28:45;;;;;;;10.82;2.15;;;;;;;12.57;88.01;101395.16;5027464;28;20385;-84
2022/09/17 09:31:33;;;;;;;7.68;1.58;;;;;;;12.70;91.61;101397.81;5024775;28;20080;-84
2022/09/17 09:34:02;;;;;;;4.28;1.40;;;;;;;12.79;90.22;101395.44;5023705;28;20125;-84
2022/09/17 09:36:29;;;;;;;4.95;1.15;;;;;;;12.88;89.25;101400.97;5015013;28;20067;-84
2022/09/17 09:39:23;;;;;;;6.20;1.42;;;;;;;12.98;89.72;101394.91;5048678;28;20086;-85
2022/09/17 09:41:53;;;;;;;11.35;2.45;;;;;;;13.03;86.23;101401.69;5037220;28;20124;-84
2022/09/17 09:44:19;;;;;;;8.32;1.67;;;;;;;13.06;84.01;101395.19;5046502;28;20021;-84
2022/09/17 09:47:12;;;;;;;6.03;1.55;;;;;;;13.09;86.41;101395.84;5021856;28;20504;-84
2022/09/17 09:50:28;;;;;;;10.90;2.25;;;;;;;13.08;84.46;101402.19;5021741;28;20037;-84
2022/09/17 09:53:18;;;;;;;5.55;1.33;;;;;;;13.05;80.66;101402.44;4951701;28;20062;-84
2022/09/17 09:55:53;;;;;;;9.10;1.75;;;;;;;13.02;81.38;101397.28;4921188;28;20109;-84
2022/09/17 09:58:40;;;;;;;6.00;1.48;;;;;;;13.05;84.95;101402.44;4972409;28;20034;-84
2022/09/17 10:01:19;;;;;;;10.02;1.38;;;;;;;13.07;82.14;101416.66;4981960;28;20443;-84
2022/09/17 10:03:45;;;;;;;10.73;1.65;;;;;;;13.04;79.82;101405.25;4984605;28;20741;-84
2022/09/17 10:06:11;;;;;;;5.38;0.82;;;;;;;13.07;81.95;101415.81;4949481;28;20144;-84
2022/09/17 10:08:39;;;;;;;4.57;0.98;;;;;;;13.16;83.67;101403.47;4965846;28;20051;-84
2022/09/17 10:11:19;;;;;;;4.35;1.00;;;;;;;13.17;77.44;101416.84;4969828;28;20046;-84
2022/09/17 10:13:45;;;;;;;11.90;1.75;;;;;;;13.24;78.53;101401.06;4970779;28;20035;-85
2022/09/17 10:16:29;;;;;;;5.75;1.25;;;;;;;13.29;79.52;101402.44;4969790;28;20030;-84
2022/09/17 10:19:04;;;;;;;11.18;1.48;;;;;;;13.31;78.42;101405.00;4967858;28;20133;-84
2022/09/17 10:21:33;;;;;;;7.47;1.33;;;;;;;13.28;79.82;101408.81;4969018;28;20063;-85
2022/09/17 10:24:01;;;;;;;7.25;1.35;;;;;;;13.33;79.57;101410.28;4970105;28;20038;-84
2022/09/17 10:26:35;;;;;;;5.47;1.27;;;;;;;13.40;80.18;101393.53;4955722;28;20110;-84
2022/09/17 10:29:18;;;;;;;4.22;1.17;;;;;;;13.51;80.89;101398.09;5020436;28;20125;-84
2022/09/17 10:31:57;;;;;;;8.60;1.45;;;;;;;13.59;80.39;101386.72;5030775;28;20063;-84
2022/09/17 10:34:25;;;;;;;6.13;1.27;;;;;;;13.61;77.15;101385.59;5027385;28;20026;-84
2022/09/17 10:36:51;;;;;;;10.30;1.98;;;;;;;13.61;79.53;101390.16;5028875;28;20303;-84
2022/09/17 10:39:26;;;;;;;12.63;2.15;;;;;;;13.59;82.85;101397.53;5025234;28;20029;-84
2022/09/17 10:42:11;;;;;;;10.68;1.95;;;;;;;13.49;84.03;101399.22;5028125;28;20499;-84
2022/09/17 10:44:37;;;;;;;8.18;1.30;;;;;;;13.39;83.90;101396.34;5028737;28;20860;-83
2022/09/17 10:47:05;;;;;;;6.85;1.35;;;;;;;13.28;82.37;101403.41;5027534;28;20036;-85
2022/09/17 10:49:37;;;;;;;10.88;1.60;;;;;;;13.26;87.79;101401.78;5026072;28;20032;-84
2022/09/17 10:52:09;;;;;;;8.00;1.30;;;;;;;13.26;87.98;101404.50;5025667;28;20102;-84
2022/09/17 10:54:51;;;;;;;6.32;1.08;;;;;;;13.23;85.76;101399.31;5029124;28;20365;-83
2022/09/17 10:57:50;;;;;;;5.22;1.73;;;;;;;13.18;84.06;101407.78;5034813;28;20043;-84
2022/09/17 11:00:22;;;;;;;9.32;1.73;;;;;;;13.13;81.99;101398.31;5031313;28;20064;-83
2022/09/17 11:03:17;;;;;;;7.20;1.23;;;;;;;13.14;84.01;101398.19;5028531;28;20052;-83
2022/09/17 11:05:54;;;;;;;3.20;0.90;;;;;;;13.19;83.86;101405.94;5027475;28;20120;-82
2022/09/17 11:08:29;;;;;;;5.97;1.30;;;;;;;13.18;80.53;101396.97;5027552;28;20168;-83
2022/09/17 11:11:09;;;;;;;5.00;0.90;;;;;;;13.16;82.85;101393.53;5030368;28;20056;-83
2022/09/17 11:13:44;;;;;;;3.67;0.63;;;;;;;13.10;82.03;101397.56;5030137;28;20033;-83
2022/09/17 11:16:26;;;;;;;5.35;1.23;;;;;;;13.07;81.85;101388.81;5027683;28;20033;-83
2022/09/17 11:19:08;;;;;;;9.88;1.20;;;;;;;13.04;82.19;101394.47;5030580;28;20488;-84
2022/09/17 11:22:01;;;;;;;8.13;1.67;;;;;;;13.08;85.11;101385.16;5030784;28;20043;-83
2022/09/17 11:25:03;;;;;;;6.32;1.42;;;;;;;13.16;83.34;101393.53;5032547;28;20124;-83
2022/09/17 11:27:49;;;;;;;7.32;1.35;;;;;;;13.25;84.71;101384.75;5027999;28;20035;-83
2022/09/17 11:30:20;;;;;;;5.43;1.15;;;;;;;13.26;82.83;101378.34;5043583;28;20155;-83
2022/09/17 11:33:07;;;;;;;5.40;1.48;;;;;;;13.37;85.92;101376.72;5027033;28;20076;-83
2022/09/17 11:35:37;;;;;;;6.07;1.33;;;;;;;13.43;83.54;101389.75;5028883;28;20025;-83
2022/09/17 11:38:38;;;;;;;2.80;1.10;;;;;;;13.52;85.78;101375.53;5028609;28;20040;-83